sensor_id;sensor_type;location;lat;lon;timestamp;temperature;humidity
14985;DHT22;7588;62.368;25.902;2022-09-09T00:04:31;-0.30;99.90
14985;DHT22;7588;62.368;25.902;2022-09-09T00:06:59;-0.30;99.90
14985;DHT22;7588;62.368;25.902;2022-09-09T00:09:30;-0.30;99.90
14985;DHT22;7588;62.368;25.902;2022-09-09T00:17:38;-0.30;99.90
14985;DHT22;7588;62.368;25.902;2022-09-09T00:20:16;-0.30;99.90
14985;DHT22;7588;62.368;25.902;2022-09-09T00:23:00;-0.40;99.90
14985;DHT22;7588;62.368;25.902;2022-09-09T00:25:40;-0.40;99.90
14985;DHT22;7588;62.368;25.902;2022-09-09T00:28:17;-0.40;99.90
14985;DHT22;7588;62.368;25.902;2022-09-09T00:30:44;-0.50;99.90
14985;DHT22;7588;62.368;25.902;2022-09-09T00:33:16;-0.50;99.90
14985;DHT22;7588;62.368;25.902;2022-09-09T00:35:52;-0.50;99.90
14985;DHT22;7588;62.368;25.902;2022-09-09T00:38:52;-0.50;99.90
14985;DHT22;7588;62.368;25.902;2022-09-09T00:49:38;-0.60;99.90
14985;DHT22;7588;62.368;25.902;2022-09-09T00:57:53;-0.70;99.90
14985;DHT22;7588;62.368;25.902;2022-09-09T01:00:26;-0.70;99.90
14985;DHT22;7588;62.368;25.902;2022-09-09T01:09:29;-0.70;99.90
14985;DHT22;7588;62.368;25.902;2022-09-09T01:12:16;-0.80;99.90
14985;DHT22;7588;62.368;25.902;2022-09-09T01:14:49;-0.70;99.90
14985;DHT22;7588;62.368;25.902;2022-09-09T01:17:30;-0.80;99.90
14985;DHT22;7588;62.368;25.902;2022-09-09T01:20:04;-0.80;99.90
14985;DHT22;7588;62.368;25.902;2022-09-09T01:22:35;-0.80;99.90
14985;DHT22;7588;62.368;25.902;2022-09-09T01:28:10;-0.80;99.90
14985;DHT22;7588;62.368;25.902;2022-09-09T01:30:40;-0.90;99.90
14985;DHT22;7588;62.368;25.902;2022-09-09T01:33:13;-0.90;99.90
14985;DHT22;7588;62.368;25.902;2022-09-09T01:38:29;-0.90;99.90
14985;DHT22;7588;62.368;25.902;2022-09-09T01:40:56;-0.90;99.90
14985;DHT22;7588;62.368;25.902;2022-09-09T01:43:24;-0.90;99.90
14985;DHT22;7588;62.368;25.902;2022-09-09T01:45:55;-1.00;99.90
14985;DHT22;7588;62.368;25.902;2022-09-09T01:48:23;-1.00;99.90
14985;DHT22;7588;62.368;25.902;2022-09-09T01:50:49;-1.00;99.90
14985;DHT22;7588;62.368;25.902;2022-09-09T01:53:17;-1.00;99.90
14985;DHT22;7588;62.368;25.902;2022-09-09T02:04:21;-1.10;99.90
14985;DHT22;7588;62.368;25.902;2022-09-09T02:06:53;-1.10;99.90
14985;DHT22;7588;62.368;25.902;2022-09-09T02:09:23;-1.10;99.90
14985;DHT22;7588;62.368;25.902;2022-09-09T02:11:59;-1.10;99.90
14985;DHT22;7588;62.368;25.902;2022-09-09T02:14:36;-1.10;99.90
14985;DHT22;7588;62.368;25.902;2022-09-09T02:17:09;-1.10;99.90
14985;DHT22;7588;62.368;25.902;2022-09-09T02:19:46;-1.10;99.90
14985;DHT22;7588;62.368;25.902;2022-09-09T02:22:16;-1.10;99.90
14985;DHT22;7588;62.368;25.902;2022-09-09T02:24:44;-1.10;99.90
14985;DHT22;7588;62.368;25.902;2022-09-09T02:27:12;-1.10;99.90
14985;DHT22;7588;62.368;25.902;2022-09-09T02:29:40;-1.10;99.90
14985;DHT22;7588;62.368;25.902;2022-09-09T02:32:11;-1.20;99.90
14985;DHT22;7588;62.368;25.902;2022-09-09T02:34:42;-1.20;99.90
14985;DHT22;7588;62.368;25.902;2022-09-09T02:37:09;-1.20;99.90
14985;DHT22;7588;62.368;25.902;2022-09-09T02:39:36;-1.20;99.90
14985;DHT22;7588;62.368;25.902;2022-09-09T02:42:04;-1.20;99.90
14985;DHT22;7588;62.368;25.902;2022-09-09T02:44:29;-1.20;99.90
14985;DHT22;7588;62.368;25.902;2022-09-09T02:57:50;-1.30;99.90
14985;DHT22;7588;62.368;25.902;2022-09-09T03:00:23;-1.30;99.90
14985;DHT22;7588;62.368;25.902;2022-09-09T03:02:50;-1.30;99.90
14985;DHT22;7588;62.368;25.902;2022-09-09T03:05:17;-1.30;99.90
14985;DHT22;7588;62.368;25.902;2022-09-09T03:07:42;-1.30;99.90
14985;DHT22;7588;62.368;25.902;2022-09-09T03:10:08;-1.30;99.90
14985;DHT22;7588;62.368;25.902;2022-09-09T03:12:36;-1.30;99.90
14985;DHT22;7588;62.368;25.902;2022-09-09T03:15:01;-1.30;99.90
14985;DHT22;7588;62.368;25.902;2022-09-09T03:17:27;-1.30;99.90
14985;DHT22;7588;62.368;25.902;2022-09-09T03:19:53;-1.40;99.90
14985;DHT22;7588;62.368;25.902;2022-09-09T03:22:20;-1.40;99.90
14985;DHT22;7588;62.368;25.902;2022-09-09T03:24:46;-1.30;99.90
14985;DHT22;7588;62.368;25.902;2022-09-09T03:27:12;-1.30;99.90
14985;DHT22;7588;62.368;25.902;2022-09-09T03:29:39;-1.30;99.90
14985;DHT22;7588;62.368;25.902;2022-09-09T03:32:06;-1.40;99.90
14985;DHT22;7588;62.368;25.902;2022-09-09T03:34:31;-1.40;99.90
14985;DHT22;7588;62.368;25.902;2022-09-09T03:36:57;-1.30;99.90
14985;DHT22;7588;62.368;25.902;2022-09-09T03:39:23;-1.30;99.90
14985;DHT22;7588;62.368;25.902;2022-09-09T03:41:49;-1.40;99.90
14985;DHT22;7588;62.368;25.902;2022-09-09T03:44:15;-1.30;99.90
14985;DHT22;7588;62.368;25.902;2022-09-09T03:46:40;-1.30;99.90
14985;DHT22;7588;62.368;25.902;2022-09-09T03:49:06;-1.30;99.90
14985;DHT22;7588;62.368;25.902;2022-09-09T03:51:32;-1.30;99.90
14985;DHT22;7588;62.368;25.902;2022-09-09T03:54:01;-1.20;99.90
14985;DHT22;7588;62.368;25.902;2022-09-09T03:56:27;-1.20;99.90
14985;DHT22;7588;62.368;25.902;2022-09-09T03:58:53;-1.20;99.90
14985;DHT22;7588;62.368;25.902;2022-09-09T04:01:18;-1.20;99.90
14985;DHT22;7588;62.368;25.902;2022-09-09T04:03:47;-1.20;99.90
14985;DHT22;7588;62.368;25.902;2022-09-09T04:06:13;-1.10;99.90
14985;DHT22;7588;62.368;25.902;2022-09-09T04:08:40;-1.10;99.90
14985;DHT22;7588;62.368;25.902;2022-09-09T04:11:06;-1.10;99.90
14985;DHT22;7588;62.368;25.902;2022-09-09T04:13:36;-1.00;99.90
14985;DHT22;7588;62.368;25.902;2022-09-09T04:16:06;-1.00;99.90
14985;DHT22;7588;62.368;25.902;2022-09-09T04:18:32;-1.00;99.90
14985;DHT22;7588;62.368;25.902;2022-09-09T04:20:59;-1.00;99.90
14985;DHT22;7588;62.368;25.902;2022-09-09T04:23:27;-1.00;99.90
14985;DHT22;7588;62.368;25.902;2022-09-09T04:25:56;-1.00;99.90
14985;DHT22;7588;62.368;25.902;2022-09-09T04:28:24;-1.00;99.90
14985;DHT22;7588;62.368;25.902;2022-09-09T04:30:50;-0.90;99.90
14985;DHT22;7588;62.368;25.902;2022-09-09T04:33:16;-0.90;99.90
14985;DHT22;7588;62.368;25.902;2022-09-09T04:35:46;-0.90;99.90
14985;DHT22;7588;62.368;25.902;2022-09-09T04:38:13;-0.80;99.90
14985;DHT22;7588;62.368;25.902;2022-09-09T04:40:39;-0.80;99.90
14985;DHT22;7588;62.368;25.902;2022-09-09T04:43:08;-0.70;99.90
14985;DHT22;7588;62.368;25.902;2022-09-09T04:45:34;-0.70;99.90
14985;DHT22;7588;62.368;25.902;2022-09-09T04:48:03;-0.60;99.90
14985;DHT22;7588;62.368;25.902;2022-09-09T04:50:29;-0.50;99.90
14985;DHT22;7588;62.368;25.902;2022-09-09T04:52:55;-0.40;99.90
14985;DHT22;7588;62.368;25.902;2022-09-09T04:55:20;-0.30;99.90
14985;DHT22;7588;62.368;25.902;2022-09-09T04:57:46;-0.20;99.90
14985;DHT22;7588;62.368;25.902;2022-09-09T05:00:12;-0.10;99.90
14985;DHT22;7588;62.368;25.902;2022-09-09T05:02:39;0.00;99.90
14985;DHT22;7588;62.368;25.902;2022-09-09T05:05:06;0.10;99.90
14985;DHT22;7588;62.368;25.902;2022-09-09T05:07:32;0.30;99.90
14985;DHT22;7588;62.368;25.902;2022-09-09T05:09:57;0.40;99.90
14985;DHT22;7588;62.368;25.902;2022-09-09T05:12:23;0.50;99.90
14985;DHT22;7588;62.368;25.902;2022-09-09T05:14:51;0.60;99.90
14985;DHT22;7588;62.368;25.902;2022-09-09T05:17:17;0.70;99.90
14985;DHT22;7588;62.368;25.902;2022-09-09T05:19:43;0.70;99.90
14985;DHT22;7588;62.368;25.902;2022-09-09T05:22:10;0.80;99.90
14985;DHT22;7588;62.368;25.902;2022-09-09T05:24:37;0.90;99.90
14985;DHT22;7588;62.368;25.902;2022-09-09T05:27:04;1.10;99.90
14985;DHT22;7588;62.368;25.902;2022-09-09T05:29:31;1.20;99.90
14985;DHT22;7588;62.368;25.902;2022-09-09T05:31:59;1.40;99.90
14985;DHT22;7588;62.368;25.902;2022-09-09T05:34:25;1.50;99.90
14985;DHT22;7588;62.368;25.902;2022-09-09T05:36:51;1.70;99.90
14985;DHT22;7588;62.368;25.902;2022-09-09T05:39:17;1.80;99.90
14985;DHT22;7588;62.368;25.902;2022-09-09T05:41:43;1.90;99.90
14985;DHT22;7588;62.368;25.902;2022-09-09T05:44:09;2.10;99.90
14985;DHT22;7588;62.368;25.902;2022-09-09T05:46:35;2.20;99.90
14985;DHT22;7588;62.368;25.902;2022-09-09T05:49:02;2.40;99.90
14985;DHT22;7588;62.368;25.902;2022-09-09T05:51:29;2.60;99.90
14985;DHT22;7588;62.368;25.902;2022-09-09T05:53:57;2.80;99.90
14985;DHT22;7588;62.368;25.902;2022-09-09T05:56:28;3.00;99.90
14985;DHT22;7588;62.368;25.902;2022-09-09T05:58:55;3.20;99.90
14985;DHT22;7588;62.368;25.902;2022-09-09T06:01:33;3.40;99.90
14985;DHT22;7588;62.368;25.902;2022-09-09T06:03:59;3.60;99.90
14985;DHT22;7588;62.368;25.902;2022-09-09T06:06:33;3.90;99.90
14985;DHT22;7588;62.368;25.902;2022-09-09T06:09:03;4.20;99.90
14985;DHT22;7588;62.368;25.902;2022-09-09T06:11:32;4.50;99.90
14985;DHT22;7588;62.368;25.902;2022-09-09T06:14:00;4.70;99.90
14985;DHT22;7588;62.368;25.902;2022-09-09T06:16:27;4.90;99.90
14985;DHT22;7588;62.368;25.902;2022-09-09T06:18:54;5.20;99.90
14985;DHT22;7588;62.368;25.902;2022-09-09T06:21:30;5.40;99.90
14985;DHT22;7588;62.368;25.902;2022-09-09T06:23:56;5.60;99.90
14985;DHT22;7588;62.368;25.902;2022-09-09T06:26:30;5.70;99.90
14985;DHT22;7588;62.368;25.902;2022-09-09T06:28:56;6.00;99.90
14985;DHT22;7588;62.368;25.902;2022-09-09T06:31:25;6.20;99.90
14985;DHT22;7588;62.368;25.902;2022-09-09T06:33:53;6.30;99.90
14985;DHT22;7588;62.368;25.902;2022-09-09T06:36:40;6.50;99.90
14985;DHT22;7588;62.368;25.902;2022-09-09T06:39:07;6.70;99.90
14985;DHT22;7588;62.368;25.902;2022-09-09T06:41:34;6.80;99.90
14985;DHT22;7588;62.368;25.902;2022-09-09T06:44:00;7.00;99.90
14985;DHT22;7588;62.368;25.902;2022-09-09T06:46:28;7.10;99.90
14985;DHT22;7588;62.368;25.902;2022-09-09T06:48:56;7.30;99.90
14985;DHT22;7588;62.368;25.902;2022-09-09T06:51:26;7.40;99.90
14985;DHT22;7588;62.368;25.902;2022-09-09T06:53:54;7.60;99.90
14985;DHT22;7588;62.368;25.902;2022-09-09T06:56:30;7.80;99.90
14985;DHT22;7588;62.368;25.902;2022-09-09T06:58:59;8.10;99.90
14985;DHT22;7588;62.368;25.902;2022-09-09T07:01:30;8.80;99.90
14985;DHT22;7588;62.368;25.902;2022-09-09T07:03:58;9.90;99.90
14985;DHT22;7588;62.368;25.902;2022-09-09T07:06:29;11.00;99.90
14985;DHT22;7588;62.368;25.902;2022-09-09T07:08:57;12.00;99.90
14985;DHT22;7588;62.368;25.902;2022-09-09T07:11:26;12.50;99.90
14985;DHT22;7588;62.368;25.902;2022-09-09T07:13:53;13.20;99.90
14985;DHT22;7588;62.368;25.902;2022-09-09T07:16:20;13.60;99.90
14985;DHT22;7588;62.368;25.902;2022-09-09T07:18:46;13.90;99.90
14985;DHT22;7588;62.368;25.902;2022-09-09T07:21:14;14.30;99.90
14985;DHT22;7588;62.368;25.902;2022-09-09T07:23:40;14.90;99.90
14985;DHT22;7588;62.368;25.902;2022-09-09T07:26:12;15.10;98.60
14985;DHT22;7588;62.368;25.902;2022-09-09T07:28:38;15.40;97.90
14985;DHT22;7588;62.368;25.902;2022-09-09T07:31:05;15.30;98.10
14985;DHT22;7588;62.368;25.902;2022-09-09T07:33:33;15.70;96.40
14985;DHT22;7588;62.368;25.902;2022-09-09T07:36:12;15.80;97.00
14985;DHT22;7588;62.368;25.902;2022-09-09T07:38:47;16.10;96.70
14985;DHT22;7588;62.368;25.902;2022-09-09T07:41:19;16.30;95.30
14985;DHT22;7588;62.368;25.902;2022-09-09T07:43:47;16.50;97.20
14985;DHT22;7588;62.368;25.902;2022-09-09T07:46:14;16.40;95.20
14985;DHT22;7588;62.368;25.902;2022-09-09T07:48:48;16.40;94.10
14985;DHT22;7588;62.368;25.902;2022-09-09T07:51:20;16.50;93.80
14985;DHT22;7588;62.368;25.902;2022-09-09T07:53:52;16.60;93.40
14985;DHT22;7588;62.368;25.902;2022-09-09T07:56:21;16.60;92.50
14985;DHT22;7588;62.368;25.902;2022-09-09T07:58:49;16.40;92.90
14985;DHT22;7588;62.368;25.902;2022-09-09T08:01:19;17.10;92.10
14985;DHT22;7588;62.368;25.902;2022-09-09T08:03:46;17.30;91.00
14985;DHT22;7588;62.368;25.902;2022-09-09T08:06:12;17.60;90.20
14985;DHT22;7588;62.368;25.902;2022-09-09T08:08:40;17.60;88.80
14985;DHT22;7588;62.368;25.902;2022-09-09T08:11:11;17.00;91.20
14985;DHT22;7588;62.368;25.902;2022-09-09T08:13:38;17.10;89.60
14985;DHT22;7588;62.368;25.902;2022-09-09T08:16:12;17.60;87.10
14985;DHT22;7588;62.368;25.902;2022-09-09T08:18:38;17.60;88.20
14985;DHT22;7588;62.368;25.902;2022-09-09T08:21:13;17.90;90.40
14985;DHT22;7588;62.368;25.902;2022-09-09T08:23:40;17.90;89.80
14985;DHT22;7588;62.368;25.902;2022-09-09T08:26:17;18.20;88.10
14985;DHT22;7588;62.368;25.902;2022-09-09T08:28:49;18.40;90.30
14985;DHT22;7588;62.368;25.902;2022-09-09T08:31:22;18.70;84.10
14985;DHT22;7588;62.368;25.902;2022-09-09T08:33:48;18.80;88.00
14985;DHT22;7588;62.368;25.902;2022-09-09T08:36:17;18.80;83.90
14985;DHT22;7588;62.368;25.902;2022-09-09T08:38:43;18.70;85.40
14985;DHT22;7588;62.368;25.902;2022-09-09T08:57:48;18.70;82.80
14985;DHT22;7588;62.368;25.902;2022-09-09T09:00:15;18.90;81.50
14985;DHT22;7588;62.368;25.902;2022-09-09T09:06:18;19.10;81.60
14985;DHT22;7588;62.368;25.902;2022-09-09T09:08:59;19.00;76.90
14985;DHT22;7588;62.368;25.902;2022-09-09T09:11:26;18.60;78.90
14985;DHT22;7588;62.368;25.902;2022-09-09T09:13:56;18.80;80.20
14985;DHT22;7588;62.368;25.902;2022-09-09T09:16:48;19.00;82.40
14985;DHT22;7588;62.368;25.902;2022-09-09T09:19:16;19.40;77.00
14985;DHT22;7588;62.368;25.902;2022-09-09T09:21:45;19.10;79.50
14985;DHT22;7588;62.368;25.902;2022-09-09T09:26:48;18.60;76.50
14985;DHT22;7588;62.368;25.902;2022-09-09T09:29:16;18.80;76.20
14985;DHT22;7588;62.368;25.902;2022-09-09T09:31:52;19.00;79.00
14985;DHT22;7588;62.368;25.902;2022-09-09T09:34:20;18.80;77.90
14985;DHT22;7588;62.368;25.902;2022-09-09T09:36:53;19.20;77.80
14985;DHT22;7588;62.368;25.902;2022-09-09T09:39:35;18.90;73.50
14985;DHT22;7588;62.368;25.902;2022-09-09T09:42:14;18.40;75.40
14985;DHT22;7588;62.368;25.902;2022-09-09T09:44:41;18.20;75.80
14985;DHT22;7588;62.368;25.902;2022-09-09T09:49:52;18.50;75.60
14985;DHT22;7588;62.368;25.902;2022-09-09T09:52:24;18.70;77.40
14985;DHT22;7588;62.368;25.902;2022-09-09T09:54:50;18.80;73.30
14985;DHT22;7588;62.368;25.902;2022-09-09T09:57:18;19.00;76.70
14985;DHT22;7588;62.368;25.902;2022-09-09T09:59:49;19.30;76.30
14985;DHT22;7588;62.368;25.902;2022-09-09T10:02:25;19.30;75.50
14985;DHT22;7588;62.368;25.902;2022-09-09T10:05:21;18.80;71.50
14985;DHT22;7588;62.368;25.902;2022-09-09T10:19:15;21.30;65.20
14985;DHT22;7588;62.368;25.902;2022-09-09T10:22:02;21.00;66.00
14985;DHT22;7588;62.368;25.902;2022-09-09T10:30:18;20.00;72.40
14985;DHT22;7588;62.368;25.902;2022-09-09T10:33:16;20.40;66.70
14985;DHT22;7588;62.368;25.902;2022-09-09T10:35:48;19.60;68.20
14985;DHT22;7588;62.368;25.902;2022-09-09T10:38:18;18.80;72.20
14985;DHT22;7588;62.368;25.902;2022-09-09T10:52:03;17.50;74.80
14985;DHT22;7588;62.368;25.902;2022-09-09T10:57:33;17.20;75.10
14985;DHT22;7588;62.368;25.902;2022-09-09T11:00:10;16.90;76.40
14985;DHT22;7588;62.368;25.902;2022-09-09T11:02:40;16.60;78.90
14985;DHT22;7588;62.368;25.902;2022-09-09T11:05:20;16.40;78.10
14985;DHT22;7588;62.368;25.902;2022-09-09T11:07:53;16.00;81.10
14985;DHT22;7588;62.368;25.902;2022-09-09T11:19:04;16.80;81.20
14985;DHT22;7588;62.368;25.902;2022-09-09T11:21:40;17.20;75.80
14985;DHT22;7588;62.368;25.902;2022-09-09T11:24:15;17.40;73.80
14985;DHT22;7588;62.368;25.902;2022-09-09T11:26:57;16.80;76.50
14985;DHT22;7588;62.368;25.902;2022-09-09T11:42:35;16.40;76.70
14985;DHT22;7588;62.368;25.902;2022-09-09T11:45:26;16.50;80.00
14985;DHT22;7588;62.368;25.902;2022-09-09T11:47:58;16.50;81.70
14985;DHT22;7588;62.368;25.902;2022-09-09T11:52:51;18.50;77.20
14985;DHT22;7588;62.368;25.902;2022-09-09T11:55:28;19.70;75.70
14985;DHT22;7588;62.368;25.902;2022-09-09T11:58:06;20.60;68.90
14985;DHT22;7588;62.368;25.902;2022-09-09T12:00:49;20.90;67.00
14985;DHT22;7588;62.368;25.902;2022-09-09T12:03:47;20.10;69.10
14985;DHT22;7588;62.368;25.902;2022-09-09T12:06:33;19.20;68.90
14985;DHT22;7588;62.368;25.902;2022-09-09T12:19:40;15.90;80.60
14985;DHT22;7588;62.368;25.902;2022-09-09T12:30:24;16.00;81.60
14985;DHT22;7588;62.368;25.902;2022-09-09T12:33:13;15.50;82.10
14985;DHT22;7588;62.368;25.902;2022-09-09T12:35:40;15.20;83.70
14985;DHT22;7588;62.368;25.902;2022-09-09T12:38:13;14.90;84.00
14985;DHT22;7588;62.368;25.902;2022-09-09T12:40:41;14.80;85.40
14985;DHT22;7588;62.368;25.902;2022-09-09T12:43:21;14.80;85.90
14985;DHT22;7588;62.368;25.902;2022-09-09T12:45:49;14.80;86.40
14985;DHT22;7588;62.368;25.902;2022-09-09T12:48:18;14.80;85.30
14985;DHT22;7588;62.368;25.902;2022-09-09T12:50:51;14.80;84.70
14985;DHT22;7588;62.368;25.902;2022-09-09T12:53:34;14.80;84.50
14985;DHT22;7588;62.368;25.902;2022-09-09T12:56:04;14.80;85.70
14985;DHT22;7588;62.368;25.902;2022-09-09T12:58:32;14.80;87.90
14985;DHT22;7588;62.368;25.902;2022-09-09T13:00:59;14.80;86.80
14985;DHT22;7588;62.368;25.902;2022-09-09T13:03:26;14.70;88.70
14985;DHT22;7588;62.368;25.902;2022-09-09T13:05:54;14.70;90.10
14985;DHT22;7588;62.368;25.902;2022-09-09T13:08:27;14.60;88.40
14985;DHT22;7588;62.368;25.902;2022-09-09T13:10:57;14.70;87.90
14985;DHT22;7588;62.368;25.902;2022-09-09T13:16:00;14.60;90.00
14985;DHT22;7588;62.368;25.902;2022-09-09T13:18:32;14.40;88.30
14985;DHT22;7588;62.368;25.902;2022-09-09T13:21:00;14.30;87.90
14985;DHT22;7588;62.368;25.902;2022-09-09T13:23:34;14.00;90.00
14985;DHT22;7588;62.368;25.902;2022-09-09T13:26:05;13.80;89.30
14985;DHT22;7588;62.368;25.902;2022-09-09T13:28:33;13.80;90.90
14985;DHT22;7588;62.368;25.902;2022-09-09T13:31:23;13.70;91.30
14985;DHT22;7588;62.368;25.902;2022-09-09T13:33:50;13.60;90.90
14985;DHT22;7588;62.368;25.902;2022-09-09T13:36:15;13.60;90.60
14985;DHT22;7588;62.368;25.902;2022-09-09T13:38:56;13.80;90.20
14985;DHT22;7588;62.368;25.902;2022-09-09T13:41:24;14.00;90.60
14985;DHT22;7588;62.368;25.902;2022-09-09T13:43:52;14.00;90.80
14985;DHT22;7588;62.368;25.902;2022-09-09T13:46:37;14.10;92.10
14985;DHT22;7588;62.368;25.902;2022-09-09T13:49:20;14.00;91.10
14985;DHT22;7588;62.368;25.902;2022-09-09T13:51:51;14.00;92.00
14985;DHT22;7588;62.368;25.902;2022-09-09T13:54:20;14.00;90.50
14985;DHT22;7588;62.368;25.902;2022-09-09T13:56:46;14.10;90.40
14985;DHT22;7588;62.368;25.902;2022-09-09T13:59:15;14.20;89.00
14985;DHT22;7588;62.368;25.902;2022-09-09T14:01:41;14.20;90.00
14985;DHT22;7588;62.368;25.902;2022-09-09T14:04:08;14.10;91.60
14985;DHT22;7588;62.368;25.902;2022-09-09T14:06:35;14.10;91.50
14985;DHT22;7588;62.368;25.902;2022-09-09T14:09:10;14.20;90.20
14985;DHT22;7588;62.368;25.902;2022-09-09T14:11:36;14.10;91.80
14985;DHT22;7588;62.368;25.902;2022-09-09T14:14:04;14.20;88.90
14985;DHT22;7588;62.368;25.902;2022-09-09T14:16:31;14.20;89.70
14985;DHT22;7588;62.368;25.902;2022-09-09T14:18:56;14.20;88.70
14985;DHT22;7588;62.368;25.902;2022-09-09T14:21:23;14.30;88.20
14985;DHT22;7588;62.368;25.902;2022-09-09T14:23:49;14.30;90.00
14985;DHT22;7588;62.368;25.902;2022-09-09T14:26:15;14.40;90.80
14985;DHT22;7588;62.368;25.902;2022-09-09T14:28:40;14.40;87.10
14985;DHT22;7588;62.368;25.902;2022-09-09T14:31:07;14.50;88.80
14985;DHT22;7588;62.368;25.902;2022-09-09T14:33:33;14.40;88.90
14985;DHT22;7588;62.368;25.902;2022-09-09T14:36:02;14.30;91.20
14985;DHT22;7588;62.368;25.902;2022-09-09T14:38:36;14.30;90.80
14985;DHT22;7588;62.368;25.902;2022-09-09T14:41:12;14.20;90.50
14985;DHT22;7588;62.368;25.902;2022-09-09T14:43:39;14.20;90.10
14985;DHT22;7588;62.368;25.902;2022-09-09T14:46:06;14.20;86.40
14985;DHT22;7588;62.368;25.902;2022-09-09T14:48:32;14.30;86.90
14985;DHT22;7588;62.368;25.902;2022-09-09T14:51:10;14.20;90.70
14985;DHT22;7588;62.368;25.902;2022-09-09T14:53:36;14.10;88.80
14985;DHT22;7588;62.368;25.902;2022-09-09T14:56:11;14.00;90.20
14985;DHT22;7588;62.368;25.902;2022-09-09T14:58:37;14.00;87.30
14985;DHT22;7588;62.368;25.902;2022-09-09T15:01:11;14.00;87.60
14985;DHT22;7588;62.368;25.902;2022-09-09T15:03:39;13.90;85.60
14985;DHT22;7588;62.368;25.902;2022-09-09T15:06:14;13.80;82.80
14985;DHT22;7588;62.368;25.902;2022-09-09T15:08:42;13.70;83.10
14985;DHT22;7588;62.368;25.902;2022-09-09T15:11:09;13.60;83.60
14985;DHT22;7588;62.368;25.902;2022-09-09T15:13:36;13.50;85.70
14985;DHT22;7588;62.368;25.902;2022-09-09T15:16:07;13.50;84.60
14985;DHT22;7588;62.368;25.902;2022-09-09T15:18:33;13.40;87.60
14985;DHT22;7588;62.368;25.902;2022-09-09T15:21:00;13.30;87.50
14985;DHT22;7588;62.368;25.902;2022-09-09T15:23:27;13.10;90.50
14985;DHT22;7588;62.368;25.902;2022-09-09T15:25:54;13.00;91.10
14985;DHT22;7588;62.368;25.902;2022-09-09T15:28:21;12.90;92.30
14985;DHT22;7588;62.368;25.902;2022-09-09T15:30:51;12.70;94.20
14985;DHT22;7588;62.368;25.902;2022-09-09T15:33:18;12.60;94.70
14985;DHT22;7588;62.368;25.902;2022-09-09T15:35:44;12.60;94.20
14985;DHT22;7588;62.368;25.902;2022-09-09T15:38:11;12.50;94.80
14985;DHT22;7588;62.368;25.902;2022-09-09T15:40:39;12.40;94.90
14985;DHT22;7588;62.368;25.902;2022-09-09T15:43:08;12.30;97.40
14985;DHT22;7588;62.368;25.902;2022-09-09T15:45:36;12.20;98.70
14985;DHT22;7588;62.368;25.902;2022-09-09T15:48:03;12.10;99.90
14985;DHT22;7588;62.368;25.902;2022-09-09T15:50:29;12.00;99.90
14985;DHT22;7588;62.368;25.902;2022-09-09T15:52:57;11.90;99.90
14985;DHT22;7588;62.368;25.902;2022-09-09T15:55:22;11.80;99.90
14985;DHT22;7588;62.368;25.902;2022-09-09T15:57:50;11.60;99.90
14985;DHT22;7588;62.368;25.902;2022-09-09T16:00:18;11.50;99.90
14985;DHT22;7588;62.368;25.902;2022-09-09T16:02:44;11.30;99.90
14985;DHT22;7588;62.368;25.902;2022-09-09T16:05:09;11.20;99.90
14985;DHT22;7588;62.368;25.902;2022-09-09T16:07:35;11.10;99.90
14985;DHT22;7588;62.368;25.902;2022-09-09T16:10:02;11.00;99.90
14985;DHT22;7588;62.368;25.902;2022-09-09T16:12:27;10.80;99.90
14985;DHT22;7588;62.368;25.902;2022-09-09T16:14:53;10.60;99.90
14985;DHT22;7588;62.368;25.902;2022-09-09T16:17:20;10.50;99.90
14985;DHT22;7588;62.368;25.902;2022-09-09T16:19:46;10.30;99.90
14985;DHT22;7588;62.368;25.902;2022-09-09T16:22:12;10.20;99.90
14985;DHT22;7588;62.368;25.902;2022-09-09T16:24:40;10.10;99.90
14985;DHT22;7588;62.368;25.902;2022-09-09T16:27:06;9.90;99.90
14985;DHT22;7588;62.368;25.902;2022-09-09T16:29:32;9.80;99.90
14985;DHT22;7588;62.368;25.902;2022-09-09T16:31:58;9.70;99.90
14985;DHT22;7588;62.368;25.902;2022-09-09T16:34:25;9.60;99.90
14985;DHT22;7588;62.368;25.902;2022-09-09T16:36:51;9.50;99.90
14985;DHT22;7588;62.368;25.902;2022-09-09T16:39:19;9.40;99.90
14985;DHT22;7588;62.368;25.902;2022-09-09T16:41:46;9.40;99.90
14985;DHT22;7588;62.368;25.902;2022-09-09T16:44:16;9.30;99.90
14985;DHT22;7588;62.368;25.902;2022-09-09T16:46:44;9.20;99.90
14985;DHT22;7588;62.368;25.902;2022-09-09T16:49:12;9.10;99.90
14985;DHT22;7588;62.368;25.902;2022-09-09T16:51:46;9.10;99.90
14985;DHT22;7588;62.368;25.902;2022-09-09T16:54:13;9.00;99.90
14985;DHT22;7588;62.368;25.902;2022-09-09T16:56:42;9.00;99.90
14985;DHT22;7588;62.368;25.902;2022-09-09T16:59:14;8.90;99.90
14985;DHT22;7588;62.368;25.902;2022-09-09T17:01:41;8.90;99.90
14985;DHT22;7588;62.368;25.902;2022-09-09T17:04:15;8.90;99.90
14985;DHT22;7588;62.368;25.902;2022-09-09T17:06:47;8.90;99.90
14985;DHT22;7588;62.368;25.902;2022-09-09T17:09:15;8.80;99.90
14985;DHT22;7588;62.368;25.902;2022-09-09T17:11:41;8.80;99.90
14985;DHT22;7588;62.368;25.902;2022-09-09T17:14:09;8.80;99.90
14985;DHT22;7588;62.368;25.902;2022-09-09T17:16:37;8.80;99.90
14985;DHT22;7588;62.368;25.902;2022-09-09T17:19:05;8.80;99.90
14985;DHT22;7588;62.368;25.902;2022-09-09T17:21:32;8.70;99.90
14985;DHT22;7588;62.368;25.902;2022-09-09T17:23:59;8.70;99.90
14985;DHT22;7588;62.368;25.902;2022-09-09T17:26:28;8.70;99.90
14985;DHT22;7588;62.368;25.902;2022-09-09T17:28:54;8.70;99.90
14985;DHT22;7588;62.368;25.902;2022-09-09T17:31:21;8.80;99.90
14985;DHT22;7588;62.368;25.902;2022-09-09T17:33:48;8.70;99.90
14985;DHT22;7588;62.368;25.902;2022-09-09T17:36:18;8.70;99.90
14985;DHT22;7588;62.368;25.902;2022-09-09T17:38:45;8.70;99.90
14985;DHT22;7588;62.368;25.902;2022-09-09T17:41:14;8.70;99.90
14985;DHT22;7588;62.368;25.902;2022-09-09T17:43:41;8.70;99.90
14985;DHT22;7588;62.368;25.902;2022-09-09T17:46:08;8.70;99.90
14985;DHT22;7588;62.368;25.902;2022-09-09T17:48:34;8.70;99.90
14985;DHT22;7588;62.368;25.902;2022-09-09T17:51:03;8.70;99.90
14985;DHT22;7588;62.368;25.902;2022-09-09T17:53:30;8.80;99.90
14985;DHT22;7588;62.368;25.902;2022-09-09T17:56:02;8.80;99.90
14985;DHT22;7588;62.368;25.902;2022-09-09T17:58:28;8.80;99.90
14985;DHT22;7588;62.368;25.902;2022-09-09T18:00:54;8.80;99.90
14985;DHT22;7588;62.368;25.902;2022-09-09T18:03:20;8.80;99.90
14985;DHT22;7588;62.368;25.902;2022-09-09T18:05:46;8.80;99.90
14985;DHT22;7588;62.368;25.902;2022-09-09T18:08:11;8.80;99.90
14985;DHT22;7588;62.368;25.902;2022-09-09T18:10:38;8.80;99.90
14985;DHT22;7588;62.368;25.902;2022-09-09T18:13:04;8.70;99.90
14985;DHT22;7588;62.368;25.902;2022-09-09T18:15:36;8.70;99.90
14985;DHT22;7588;62.368;25.902;2022-09-09T18:18:02;8.60;99.90
14985;DHT22;7588;62.368;25.902;2022-09-09T18:20:33;8.60;99.90
14985;DHT22;7588;62.368;25.902;2022-09-09T18:22:59;8.60;99.90
14985;DHT22;7588;62.368;25.902;2022-09-09T18:25:25;8.60;99.90
14985;DHT22;7588;62.368;25.902;2022-09-09T18:27:50;8.60;99.90